sensor_id;sensor_type;location;lat;lon;timestamp;P1;durP1;ratioP1;P2;durP2;ratioP2
29384;SDS011;16367;48.736;9.218;2023-04-05T00:00:47;10.25;;;4.47;;
29384;SDS011;16367;48.736;9.218;2023-04-05T00:02:50;9.23;;;4.38;;
29384;SDS011;16367;48.736;9.218;2023-04-05T00:04:54;9.13;;;4.38;;
29384;SDS011;16367;48.736;9.218;2023-04-05T00:07:00;7.88;;;3.60;;
29384;SDS011;16367;48.736;9.218;2023-04-05T00:09:03;10.00;;;4.00;;
29384;SDS011;16367;48.736;9.218;2023-04-05T00:11:06;8.65;;;3.75;;
29384;SDS011;16367;48.736;9.218;2023-04-05T00:13:09;8.25;;;3.42;;
29384;SDS011;16367;48.736;9.218;2023-04-05T00:15:13;7.32;;;3.63;;
29384;SDS011;16367;48.736;9.218;2023-04-05T00:17:16;7.63;;;3.58;;
29384;SDS011;16367;48.736;9.218;2023-04-05T00:19:19;9.23;;;4.13;;
29384;SDS011;16367;48.736;9.218;2023-04-05T00:21:23;8.18;;;3.38;;
29384;SDS011;16367;48.736;9.218;2023-04-05T00:23:26;8.70;;;4.13;;
29384;SDS011;16367;48.736;9.218;2023-04-05T00:25:29;10.32;;;4.35;;
29384;SDS011;16367;48.736;9.218;2023-04-05T00:27:32;8.82;;;3.88;;
29384;SDS011;16367;48.736;9.218;2023-04-05T00:29:34;8.35;;;3.85;;
29384;SDS011;16367;48.736;9.218;2023-04-05T00:31:38;8.25;;;3.72;;
29384;SDS011;16367;48.736;9.218;2023-04-05T00:33:42;7.20;;;3.92;;
29384;SDS011;16367;48.736;9.218;2023-04-05T00:35:46;9.52;;;3.58;;
29384;SDS011;16367;48.736;9.218;2023-04-05T00:37:48;8.63;;;3.80;;
29384;SDS011;16367;48.736;9.218;2023-04-05T00:39:51;7.82;;;3.60;;
29384;SDS011;16367;48.736;9.218;2023-04-05T00:41:55;8.80;;;3.20;;
29384;SDS011;16367;48.736;9.218;2023-04-05T00:43:58;8.35;;;3.53;;
29384;SDS011;16367;48.736;9.218;2023-04-05T00:46:01;10.85;;;3.80;;
29384;SDS011;16367;48.736;9.218;2023-04-05T00:48:05;8.02;;;3.60;;
29384;SDS011;16367;48.736;9.218;2023-04-05T00:50:09;7.75;;;3.88;;
29384;SDS011;16367;48.736;9.218;2023-04-05T00:52:12;8.18;;;4.35;;
29384;SDS011;16367;48.736;9.218;2023-04-05T00:54:16;8.98;;;3.78;;
29384;SDS011;16367;48.736;9.218;2023-04-05T00:56:20;9.77;;;3.58;;
29384;SDS011;16367;48.736;9.218;2023-04-05T00:58:24;8.00;;;3.65;;
29384;SDS011;16367;48.736;9.218;2023-04-05T01:00:27;8.13;;;4.05;;
29384;SDS011;16367;48.736;9.218;2023-04-05T01:02:31;8.48;;;3.83;;
29384;SDS011;16367;48.736;9.218;2023-04-05T01:04:36;6.85;;;3.70;;
29384;SDS011;16367;48.736;9.218;2023-04-05T01:06:42;7.72;;;3.72;;
29384;SDS011;16367;48.736;9.218;2023-04-05T01:08:54;10.07;;;4.05;;
29384;SDS011;16367;48.736;9.218;2023-04-05T01:11:06;7.15;;;3.83;;
29384;SDS011;16367;48.736;9.218;2023-04-05T01:13:10;8.07;;;3.75;;
29384;SDS011;16367;48.736;9.218;2023-04-05T01:15:13;10.27;;;4.40;;
29384;SDS011;16367;48.736;9.218;2023-04-05T01:17:16;8.13;;;4.40;;
29384;SDS011;16367;48.736;9.218;2023-04-05T01:19:23;8.55;;;3.88;;
29384;SDS011;16367;48.736;9.218;2023-04-05T01:21:43;8.38;;;3.40;;
29384;SDS011;16367;48.736;9.218;2023-04-05T01:24:16;7.72;;;3.88;;
29384;SDS011;16367;48.736;9.218;2023-04-05T01:26:38;8.73;;;4.13;;
29384;SDS011;16367;48.736;9.218;2023-04-05T01:31:35;11.48;;;4.35;;
29384;SDS011;16367;48.736;9.218;2023-04-05T01:33:43;8.13;;;3.90;;
29384;SDS011;16367;48.736;9.218;2023-04-05T01:35:54;10.30;;;4.10;;
29384;SDS011;16367;48.736;9.218;2023-04-05T01:38:03;12.13;;;4.30;;
29384;SDS011;16367;48.736;9.218;2023-04-05T01:40:08;10.18;;;3.65;;
29384;SDS011;16367;48.736;9.218;2023-04-05T01:42:11;8.80;;;4.28;;
29384;SDS011;16367;48.736;9.218;2023-04-05T01:44:14;7.55;;;3.92;;
29384;SDS011;16367;48.736;9.218;2023-04-05T01:46:18;10.25;;;4.80;;
29384;SDS011;16367;48.736;9.218;2023-04-05T01:48:21;8.48;;;4.38;;
29384;SDS011;16367;48.736;9.218;2023-04-05T01:50:24;9.15;;;4.13;;
29384;SDS011;16367;48.736;9.218;2023-04-05T01:52:27;10.48;;;4.03;;
29384;SDS011;16367;48.736;9.218;2023-04-05T01:54:29;8.13;;;3.90;;
29384;SDS011;16367;48.736;9.218;2023-04-05T01:56:32;8.77;;;4.65;;
29384;SDS011;16367;48.736;9.218;2023-04-05T01:58:35;8.05;;;4.32;;
29384;SDS011;16367;48.736;9.218;2023-04-05T02:00:38;9.00;;;4.45;;
29384;SDS011;16367;48.736;9.218;2023-04-05T02:02:43;9.38;;;4.70;;
29384;SDS011;16367;48.736;9.218;2023-04-05T02:04:46;7.85;;;4.22;;
29384;SDS011;16367;48.736;9.218;2023-04-05T02:06:49;9.02;;;4.43;;
29384;SDS011;16367;48.736;9.218;2023-04-05T02:08:51;9.38;;;4.25;;
29384;SDS011;16367;48.736;9.218;2023-04-05T02:10:54;10.23;;;4.78;;
29384;SDS011;16367;48.736;9.218;2023-04-05T02:12:57;9.57;;;4.28;;
29384;SDS011;16367;48.736;9.218;2023-04-05T02:15:00;8.85;;;4.63;;
29384;SDS011;16367;48.736;9.218;2023-04-05T02:17:02;8.65;;;4.25;;
29384;SDS011;16367;48.736;9.218;2023-04-05T02:19:07;10.18;;;4.50;;
29384;SDS011;16367;48.736;9.218;2023-04-05T02:21:09;8.85;;;4.30;;
29384;SDS011;16367;48.736;9.218;2023-04-05T02:23:18;12.38;;;4.30;;
29384;SDS011;16367;48.736;9.218;2023-04-05T02:25:21;10.75;;;4.90;;
29384;SDS011;16367;48.736;9.218;2023-04-05T02:27:24;9.18;;;4.65;;
29384;SDS011;16367;48.736;9.218;2023-04-05T02:29:26;10.68;;;4.85;;
29384;SDS011;16367;48.736;9.218;2023-04-05T02:31:29;8.75;;;4.80;;
29384;SDS011;16367;48.736;9.218;2023-04-05T02:33:32;10.70;;;4.70;;
29384;SDS011;16367;48.736;9.218;2023-04-05T02:35:36;10.82;;;4.45;;
29384;SDS011;16367;48.736;9.218;2023-04-05T02:37:39;10.05;;;4.50;;
29384;SDS011;16367;48.736;9.218;2023-04-05T02:39:43;9.48;;;4.57;;
29384;SDS011;16367;48.736;9.218;2023-04-05T02:41:45;9.40;;;4.78;;
29384;SDS011;16367;48.736;9.218;2023-04-05T02:43:48;9.85;;;5.20;;
29384;SDS011;16367;48.736;9.218;2023-04-05T02:45:51;11.50;;;4.53;;
29384;SDS011;16367;48.736;9.218;2023-04-05T02:47:54;12.20;;;4.95;;
29384;SDS011;16367;48.736;9.218;2023-04-05T02:49:57;10.90;;;4.40;;
29384;SDS011;16367;48.736;9.218;2023-04-05T02:52:01;9.82;;;4.97;;
29384;SDS011;16367;48.736;9.218;2023-04-05T02:54:04;10.10;;;5.10;;
29384;SDS011;16367;48.736;9.218;2023-04-05T02:56:06;11.93;;;4.50;;
29384;SDS011;16367;48.736;9.218;2023-04-05T02:58:09;10.05;;;4.63;;
29384;SDS011;16367;48.736;9.218;2023-04-05T03:00:15;11.02;;;5.15;;
29384;SDS011;16367;48.736;9.218;2023-04-05T03:02:18;9.20;;;4.40;;
29384;SDS011;16367;48.736;9.218;2023-04-05T03:04:22;11.35;;;4.90;;
29384;SDS011;16367;48.736;9.218;2023-04-05T03:06:27;10.40;;;5.03;;
29384;SDS011;16367;48.736;9.218;2023-04-05T03:08:33;13.82;;;4.78;;
29384;SDS011;16367;48.736;9.218;2023-04-05T03:10:37;9.95;;;4.53;;
29384;SDS011;16367;48.736;9.218;2023-04-05T03:12:45;9.57;;;4.85;;
29384;SDS011;16367;48.736;9.218;2023-04-05T03:14:48;8.65;;;4.45;;
29384;SDS011;16367;48.736;9.218;2023-04-05T03:16:50;10.55;;;4.70;;
29384;SDS011;16367;48.736;9.218;2023-04-05T03:18:53;10.48;;;5.00;;
29384;SDS011;16367;48.736;9.218;2023-04-05T03:20:57;10.73;;;4.43;;
29384;SDS011;16367;48.736;9.218;2023-04-05T03:23:00;9.32;;;4.72;;
29384;SDS011;16367;48.736;9.218;2023-04-05T03:25:05;9.73;;;4.30;;
29384;SDS011;16367;48.736;9.218;2023-04-05T03:27:09;10.43;;;4.22;;
29384;SDS011;16367;48.736;9.218;2023-04-05T03:29:11;9.80;;;4.97;;
29384;SDS011;16367;48.736;9.218;2023-04-05T03:31:14;9.27;;;4.47;;
29384;SDS011;16367;48.736;9.218;2023-04-05T03:33:20;9.07;;;4.50;;
29384;SDS011;16367;48.736;9.218;2023-04-05T03:35:23;11.05;;;4.78;;
29384;SDS011;16367;48.736;9.218;2023-04-05T03:37:26;10.05;;;4.55;;
29384;SDS011;16367;48.736;9.218;2023-04-05T03:39:28;10.90;;;4.70;;
29384;SDS011;16367;48.736;9.218;2023-04-05T03:41:32;10.55;;;4.32;;
29384;SDS011;16367;48.736;9.218;2023-04-05T03:43:35;9.25;;;5.00;;
29384;SDS011;16367;48.736;9.218;2023-04-05T03:45:38;11.23;;;4.93;;
29384;SDS011;16367;48.736;9.218;2023-04-05T03:47:41;10.13;;;4.38;;
29384;SDS011;16367;48.736;9.218;2023-04-05T03:49:44;9.10;;;4.43;;
29384;SDS011;16367;48.736;9.218;2023-04-05T03:51:47;11.38;;;4.75;;
29384;SDS011;16367;48.736;9.218;2023-04-05T03:53:50;8.77;;;4.75;;
29384;SDS011;16367;48.736;9.218;2023-04-05T03:55:52;11.50;;;4.65;;
29384;SDS011;16367;48.736;9.218;2023-04-05T03:57:57;12.75;;;5.22;;
29384;SDS011;16367;48.736;9.218;2023-04-05T04:00:00;10.32;;;4.13;;
29384;SDS011;16367;48.736;9.218;2023-04-05T04:02:04;9.43;;;4.60;;
29384;SDS011;16367;48.736;9.218;2023-04-05T04:04:07;11.55;;;4.50;;
29384;SDS011;16367;48.736;9.218;2023-04-05T04:06:10;7.93;;;4.45;;
29384;SDS011;16367;48.736;9.218;2023-04-05T04:08:13;10.13;;;4.75;;
29384;SDS011;16367;48.736;9.218;2023-04-05T04:10:16;10.52;;;4.68;;
29384;SDS011;16367;48.736;9.218;2023-04-05T04:12:19;10.02;;;4.22;;
29384;SDS011;16367;48.736;9.218;2023-04-05T04:14:23;8.15;;;4.50;;
29384;SDS011;16367;48.736;9.218;2023-04-05T04:16:26;11.20;;;5.18;;
29384;SDS011;16367;48.736;9.218;2023-04-05T04:18:29;8.30;;;4.55;;
29384;SDS011;16367;48.736;9.218;2023-04-05T04:20:32;9.15;;;4.13;;
29384;SDS011;16367;48.736;9.218;2023-04-05T04:22:34;9.95;;;5.28;;
29384;SDS011;16367;48.736;9.218;2023-04-05T04:24:39;10.70;;;4.80;;
29384;SDS011;16367;48.736;9.218;2023-04-05T04:26:47;9.70;;;4.53;;
29384;SDS011;16367;48.736;9.218;2023-04-05T04:28:50;9.43;;;4.30;;
29384;SDS011;16367;48.736;9.218;2023-04-05T04:30:54;10.63;;;4.53;;
29384;SDS011;16367;48.736;9.218;2023-04-05T04:32:57;9.25;;;4.35;;
29384;SDS011;16367;48.736;9.218;2023-04-05T04:35:04;10.45;;;4.32;;
29384;SDS011;16367;48.736;9.218;2023-04-05T04:37:10;12.77;;;5.28;;
29384;SDS011;16367;48.736;9.218;2023-04-05T04:39:18;12.32;;;5.47;;
29384;SDS011;16367;48.736;9.218;2023-04-05T04:41:26;12.15;;;5.22;;
29384;SDS011;16367;48.736;9.218;2023-04-05T04:43:30;11.85;;;5.38;;
29384;SDS011;16367;48.736;9.218;2023-04-05T04:45:34;11.13;;;5.15;;
29384;SDS011;16367;48.736;9.218;2023-04-05T04:47:39;9.77;;;4.78;;
29384;SDS011;16367;48.736;9.218;2023-04-05T04:49:42;11.27;;;4.43;;
29384;SDS011;16367;48.736;9.218;2023-04-05T04:51:45;11.50;;;5.13;;
29384;SDS011;16367;48.736;9.218;2023-04-05T04:53:47;11.02;;;5.15;;
29384;SDS011;16367;48.736;9.218;2023-04-05T04:55:50;15.00;;;5.30;;
29384;SDS011;16367;48.736;9.218;2023-04-05T04:57:55;10.68;;;4.60;;
29384;SDS011;16367;48.736;9.218;2023-04-05T04:59:58;9.30;;;5.20;;
29384;SDS011;16367;48.736;9.218;2023-04-05T05:02:00;11.23;;;5.25;;
29384;SDS011;16367;48.736;9.218;2023-04-05T05:04:05;9.90;;;4.90;;
29384;SDS011;16367;48.736;9.218;2023-04-05T05:06:07;12.45;;;4.88;;
29384;SDS011;16367;48.736;9.218;2023-04-05T05:08:10;11.45;;;4.95;;
29384;SDS011;16367;48.736;9.218;2023-04-05T05:10:13;10.70;;;4.82;;
29384;SDS011;16367;48.736;9.218;2023-04-05T05:12:18;10.77;;;5.28;;
29384;SDS011;16367;48.736;9.218;2023-04-05T05:14:22;12.82;;;6.15;;
29384;SDS011;16367;48.736;9.218;2023-04-05T05:16:25;11.00;;;4.88;;
29384;SDS011;16367;48.736;9.218;2023-04-05T05:18:28;14.00;;;6.00;;
29384;SDS011;16367;48.736;9.218;2023-04-05T05:20:32;11.65;;;5.28;;
29384;SDS011;16367;48.736;9.218;2023-04-05T05:22:35;13.43;;;5.60;;
29384;SDS011;16367;48.736;9.218;2023-04-05T05:24:38;12.10;;;5.43;;
29384;SDS011;16367;48.736;9.218;2023-04-05T05:26:40;10.95;;;5.18;;
29384;SDS011;16367;48.736;9.218;2023-04-05T05:28:43;12.07;;;5.50;;
29384;SDS011;16367;48.736;9.218;2023-04-05T05:30:49;12.30;;;5.80;;
29384;SDS011;16367;48.736;9.218;2023-04-05T05:32:51;13.55;;;5.80;;
29384;SDS011;16367;48.736;9.218;2023-04-05T05:34:54;11.38;;;5.60;;
29384;SDS011;16367;48.736;9.218;2023-04-05T05:36:58;12.55;;;5.57;;
29384;SDS011;16367;48.736;9.218;2023-04-05T05:39:02;10.52;;;5.05;;
29384;SDS011;16367;48.736;9.218;2023-04-05T05:41:06;11.27;;;5.35;;
29384;SDS011;16367;48.736;9.218;2023-04-05T05:43:08;11.15;;;5.78;;
29384;SDS011;16367;48.736;9.218;2023-04-05T05:45:11;12.25;;;5.25;;
29384;SDS011;16367;48.736;9.218;2023-04-05T05:47:14;14.38;;;5.35;;
29384;SDS011;16367;48.736;9.218;2023-04-05T05:49:17;9.82;;;4.80;;
29384;SDS011;16367;48.736;9.218;2023-04-05T05:51:20;10.75;;;5.35;;
29384;SDS011;16367;48.736;9.218;2023-04-05T05:53:24;11.85;;;5.60;;
29384;SDS011;16367;48.736;9.218;2023-04-05T05:55:26;12.60;;;5.45;;
29384;SDS011;16367;48.736;9.218;2023-04-05T05:57:29;9.98;;;5.00;;
29384;SDS011;16367;48.736;9.218;2023-04-05T05:59:32;15.18;;;5.55;;
29384;SDS011;16367;48.736;9.218;2023-04-05T06:01:35;10.13;;;4.80;;
29384;SDS011;16367;48.736;9.218;2023-04-05T06:03:38;11.35;;;5.43;;
29384;SDS011;16367;48.736;9.218;2023-04-05T06:05:49;12.20;;;5.43;;
29384;SDS011;16367;48.736;9.218;2023-04-05T06:07:52;9.93;;;4.90;;
29384;SDS011;16367;48.736;9.218;2023-04-05T06:09:56;10.82;;;5.18;;
29384;SDS011;16367;48.736;9.218;2023-04-05T06:11:59;10.07;;;4.63;;
29384;SDS011;16367;48.736;9.218;2023-04-05T06:14:02;12.07;;;4.57;;
29384;SDS011;16367;48.736;9.218;2023-04-05T06:16:05;10.10;;;5.03;;
29384;SDS011;16367;48.736;9.218;2023-04-05T06:18:07;9.95;;;5.80;;
29384;SDS011;16367;48.736;9.218;2023-04-05T06:20:11;9.70;;;4.80;;
29384;SDS011;16367;48.736;9.218;2023-04-05T06:22:13;9.95;;;5.13;;
29384;SDS011;16367;48.736;9.218;2023-04-05T06:24:16;13.93;;;5.80;;
29384;SDS011;16367;48.736;9.218;2023-04-05T06:26:21;12.82;;;6.03;;
29384;SDS011;16367;48.736;9.218;2023-04-05T06:28:27;10.60;;;5.00;;
29384;SDS011;16367;48.736;9.218;2023-04-05T06:30:30;10.50;;;5.70;;
29384;SDS011;16367;48.736;9.218;2023-04-05T06:32:33;14.80;;;5.68;;
29384;SDS011;16367;48.736;9.218;2023-04-05T06:34:36;11.15;;;5.70;;
29384;SDS011;16367;48.736;9.218;2023-04-05T06:36:39;11.25;;;5.65;;
29384;SDS011;16367;48.736;9.218;2023-04-05T06:38:42;13.77;;;5.72;;
29384;SDS011;16367;48.736;9.218;2023-04-05T06:40:46;13.48;;;5.90;;
29384;SDS011;16367;48.736;9.218;2023-04-05T06:42:50;11.25;;;5.75;;
29384;SDS011;16367;48.736;9.218;2023-04-05T06:44:52;9.48;;;4.85;;
29384;SDS011;16367;48.736;9.218;2023-04-05T06:46:55;10.07;;;5.22;;
29384;SDS011;16367;48.736;9.218;2023-04-05T06:48:58;11.93;;;5.18;;
29384;SDS011;16367;48.736;9.218;2023-04-05T06:51:04;10.45;;;5.20;;
29384;SDS011;16367;48.736;9.218;2023-04-05T06:53:07;11.20;;;5.88;;
29384;SDS011;16367;48.736;9.218;2023-04-05T06:55:10;12.98;;;6.10;;
29384;SDS011;16367;48.736;9.218;2023-04-05T06:57:12;10.55;;;5.18;;
29384;SDS011;16367;48.736;9.218;2023-04-05T06:59:17;8.82;;;4.88;;
29384;SDS011;16367;48.736;9.218;2023-04-05T07:01:19;12.32;;;5.25;;
29384;SDS011;16367;48.736;9.218;2023-04-05T07:03:22;11.90;;;4.90;;
29384;SDS011;16367;48.736;9.218;2023-04-05T07:05:25;9.75;;;5.10;;
29384;SDS011;16367;48.736;9.218;2023-04-05T07:07:28;9.48;;;4.90;;
29384;SDS011;16367;48.736;9.218;2023-04-05T07:09:31;9.63;;;3.90;;
29384;SDS011;16367;48.736;9.218;2023-04-05T07:11:34;11.50;;;5.68;;
29384;SDS011;16367;48.736;9.218;2023-04-05T07:13:39;10.20;;;5.30;;
29384;SDS011;16367;48.736;9.218;2023-04-05T07:15:43;10.73;;;5.18;;
29384;SDS011;16367;48.736;9.218;2023-04-05T07:17:46;12.68;;;5.93;;
29384;SDS011;16367;48.736;9.218;2023-04-05T07:19:49;10.52;;;5.78;;
29384;SDS011;16367;48.736;9.218;2023-04-05T07:21:52;16.00;;;6.25;;
29384;SDS011;16367;48.736;9.218;2023-04-05T07:23:55;10.95;;;5.90;;
29384;SDS011;16367;48.736;9.218;2023-04-05T07:26:01;11.75;;;6.28;;
29384;SDS011;16367;48.736;9.218;2023-04-05T07:28:06;13.27;;;5.30;;
29384;SDS011;16367;48.736;9.218;2023-04-05T07:30:09;10.88;;;5.43;;
29384;SDS011;16367;48.736;9.218;2023-04-05T07:32:14;10.05;;;5.03;;
29384;SDS011;16367;48.736;9.218;2023-04-05T07:34:17;10.13;;;5.15;;
29384;SDS011;16367;48.736;9.218;2023-04-05T07:36:20;9.52;;;5.80;;
29384;SDS011;16367;48.736;9.218;2023-04-05T07:38:23;9.73;;;5.68;;
29384;SDS011;16367;48.736;9.218;2023-04-05T07:40:26;9.88;;;5.72;;
29384;SDS011;16367;48.736;9.218;2023-04-05T07:42:29;10.00;;;5.72;;
29384;SDS011;16367;48.736;9.218;2023-04-05T07:44:32;9.70;;;5.05;;
29384;SDS011;16367;48.736;9.218;2023-04-05T07:46:35;10.27;;;5.00;;
29384;SDS011;16367;48.736;9.218;2023-04-05T07:48:40;9.10;;;4.40;;
29384;SDS011;16367;48.736;9.218;2023-04-05T07:50:43;7.80;;;4.60;;
29384;SDS011;16367;48.736;9.218;2023-04-05T07:52:48;11.43;;;4.68;;
29384;SDS011;16367;48.736;9.218;2023-04-05T07:54:50;8.63;;;4.00;;
29384;SDS011;16367;48.736;9.218;2023-04-05T07:56:54;8.63;;;5.03;;
29384;SDS011;16367;48.736;9.218;2023-04-05T07:58:58;7.68;;;4.15;;
29384;SDS011;16367;48.736;9.218;2023-04-05T08:01:02;7.55;;;4.13;;
29384;SDS011;16367;48.736;9.218;2023-04-05T08:03:06;8.85;;;4.07;;
29384;SDS011;16367;48.736;9.218;2023-04-05T08:05:10;7.65;;;4.38;;
29384;SDS011;16367;48.736;9.218;2023-04-05T08:07:13;8.40;;;3.70;;
29384;SDS011;16367;48.736;9.218;2023-04-05T08:09:16;7.88;;;3.78;;
29384;SDS011;16367;48.736;9.218;2023-04-05T08:11:18;7.60;;;4.03;;
29384;SDS011;16367;48.736;9.218;2023-04-05T08:13:22;6.95;;;3.65;;
29384;SDS011;16367;48.736;9.218;2023-04-05T08:15:24;7.75;;;3.95;;
29384;SDS011;16367;48.736;9.218;2023-04-05T08:17:27;7.38;;;4.15;;
29384;SDS011;16367;48.736;9.218;2023-04-05T08:19:30;11.23;;;5.00;;
29384;SDS011;16367;48.736;9.218;2023-04-05T08:21:34;8.32;;;4.35;;
29384;SDS011;16367;48.736;9.218;2023-04-05T08:23:37;6.78;;;3.45;;
29384;SDS011;16367;48.736;9.218;2023-04-05T08:25:40;5.85;;;3.60;;
29384;SDS011;16367;48.736;9.218;2023-04-05T08:27:43;9.95;;;3.92;;
29384;SDS011;16367;48.736;9.218;2023-04-05T08:29:46;7.05;;;3.85;;
29384;SDS011;16367;48.736;9.218;2023-04-05T08:31:48;7.55;;;4.25;;
29384;SDS011;16367;48.736;9.218;2023-04-05T08:33:51;8.57;;;4.43;;
29384;SDS011;16367;48.736;9.218;2023-04-05T08:35:54;8.07;;;4.18;;
29384;SDS011;16367;48.736;9.218;2023-04-05T08:37:58;7.43;;;3.97;;
29384;SDS011;16367;48.736;9.218;2023-04-05T08:40:01;8.23;;;4.15;;
29384;SDS011;16367;48.736;9.218;2023-04-05T08:42:07;9.43;;;4.43;;
29384;SDS011;16367;48.736;9.218;2023-04-05T08:44:13;9.70;;;4.82;;
29384;SDS011;16367;48.736;9.218;2023-04-05T08:46:19;8.77;;;4.10;;
29384;SDS011;16367;48.736;9.218;2023-04-05T08:48:24;9.00;;;4.75;;
29384;SDS011;16367;48.736;9.218;2023-04-05T08:50:29;9.13;;;3.95;;
29384;SDS011;16367;48.736;9.218;2023-04-05T08:52:32;7.28;;;3.95;;
29384;SDS011;16367;48.736;9.218;2023-04-05T08:54:39;6.93;;;4.03;;
29384;SDS011;16367;48.736;9.218;2023-04-05T08:56:43;10.63;;;4.53;;
29384;SDS011;16367;48.736;9.218;2023-04-05T08:58:51;7.32;;;3.90;;
29384;SDS011;16367;48.736;9.218;2023-04-05T09:00:59;7.53;;;4.03;;
29384;SDS011;16367;48.736;9.218;2023-04-05T09:03:03;7.85;;;4.20;;
29384;SDS011;16367;48.736;9.218;2023-04-05T09:05:07;7.97;;;4.60;;
29384;SDS011;16367;48.736;9.218;2023-04-05T09:07:12;7.63;;;4.20;;
29384;SDS011;16367;48.736;9.218;2023-04-05T09:09:16;7.57;;;3.97;;
29384;SDS011;16367;48.736;9.218;2023-04-05T09:11:23;6.82;;;3.60;;
29384;SDS011;16367;48.736;9.218;2023-04-05T09:13:26;8.27;;;4.07;;
29384;SDS011;16367;48.736;9.218;2023-04-05T09:15:29;9.18;;;4.05;;
29384;SDS011;16367;48.736;9.218;2023-04-05T09:17:32;8.65;;;4.22;;
29384;SDS011;16367;48.736;9.218;2023-04-05T09:19:35;8.15;;;4.45;;
29384;SDS011;16367;48.736;9.218;2023-04-05T09:24:00;7.40;;;3.63;;
29384;SDS011;16367;48.736;9.218;2023-04-05T09:26:16;8.85;;;3.40;;
29384;SDS011;16367;48.736;9.218;2023-04-05T09:28:20;7.40;;;3.67;;
29384;SDS011;16367;48.736;9.218;2023-04-05T09:30:23;7.53;;;3.88;;
29384;SDS011;16367;48.736;9.218;2023-04-05T09:32:28;9.18;;;4.28;;
29384;SDS011;16367;48.736;9.218;2023-04-05T09:34:31;6.97;;;3.95;;
29384;SDS011;16367;48.736;9.218;2023-04-05T09:36:34;8.27;;;3.67;;
29384;SDS011;16367;48.736;9.218;2023-04-05T09:38:41;7.38;;;3.50;;
29384;SDS011;16367;48.736;9.218;2023-04-05T09:40:45;7.85;;;3.67;;
29384;SDS011;16367;48.736;9.218;2023-04-05T09:42:48;7.78;;;4.20;;
29384;SDS011;16367;48.736;9.218;2023-04-05T09:44:55;8.07;;;3.85;;
29384;SDS011;16367;48.736;9.218;2023-04-05T09:47:12;7.63;;;4.05;;
29384;SDS011;16367;48.736;9.218;2023-04-05T09:49:20;8.65;;;4.30;;
29384;SDS011;16367;48.736;9.218;2023-04-05T09:51:34;8.70;;;5.32;;
29384;SDS011;16367;48.736;9.218;2023-04-05T09:53:39;7.18;;;4.40;;
29384;SDS011;16367;48.736;9.218;2023-04-05T09:56:00;6.88;;;3.70;;
29384;SDS011;16367;48.736;9.218;2023-04-05T10:00:17;7.90;;;3.78;;
29384;SDS011;16367;48.736;9.218;2023-04-05T10:02:21;6.95;;;3.63;;
29384;SDS011;16367;48.736;9.218;2023-04-05T10:04:25;9.05;;;4.32;;
29384;SDS011;16367;48.736;9.218;2023-04-05T10:06:35;7.13;;;4.22;;
29384;SDS011;16367;48.736;9.218;2023-04-05T10:08:38;7.03;;;4.07;;
29384;SDS011;16367;48.736;9.218;2023-04-05T10:10:45;7.85;;;4.45;;
29384;SDS011;16367;48.736;9.218;2023-04-05T10:12:49;8.15;;;3.78;;
29384;SDS011;16367;48.736;9.218;2023-04-05T10:14:52;7.93;;;4.53;;
29384;SDS011;16367;48.736;9.218;2023-04-05T10:16:58;9.50;;;4.22;;
29384;SDS011;16367;48.736;9.218;2023-04-05T10:19:15;7.65;;;4.30;;
29384;SDS011;16367;48.736;9.218;2023-04-05T10:21:28;7.55;;;4.53;;
29384;SDS011;16367;48.736;9.218;2023-04-05T10:23:33;6.03;;;4.13;;
29384;SDS011;16367;48.736;9.218;2023-04-05T10:25:43;8.43;;;4.90;;
29384;SDS011;16367;48.736;9.218;2023-04-05T10:27:54;9.38;;;4.10;;
29384;SDS011;16367;48.736;9.218;2023-04-05T10:30:04;8.10;;;4.55;;
29384;SDS011;16367;48.736;9.218;2023-04-05T10:32:12;8.98;;;4.68;;
29384;SDS011;16367;48.736;9.218;2023-04-05T10:34:23;8.15;;;4.97;;
29384;SDS011;16367;48.736;9.218;2023-04-05T10:36:34;7.55;;;4.50;;
29384;SDS011;16367;48.736;9.218;2023-04-05T10:38:46;8.98;;;4.85;;
29384;SDS011;16367;48.736;9.218;2023-04-05T10:41:04;8.85;;;4.43;;
29384;SDS011;16367;48.736;9.218;2023-04-05T10:43:14;9.65;;;5.60;;
29384;SDS011;16367;48.736;9.218;2023-04-05T10:45:18;9.02;;;4.93;;
29384;SDS011;16367;48.736;9.218;2023-04-05T10:47:24;9.85;;;4.95;;
29384;SDS011;16367;48.736;9.218;2023-04-05T10:49:31;8.15;;;5.13;;
29384;SDS011;16367;48.736;9.218;2023-04-05T10:51:38;10.05;;;4.95;;
29384;SDS011;16367;48.736;9.218;2023-04-05T10:53:44;9.45;;;4.70;;
29384;SDS011;16367;48.736;9.218;2023-04-05T10:55:50;8.50;;;4.63;;
29384;SDS011;16367;48.736;9.218;2023-04-05T10:57:54;8.02;;;4.30;;
29384;SDS011;16367;48.736;9.218;2023-04-05T10:59:58;8.77;;;4.53;;
29384;SDS011;16367;48.736;9.218;2023-04-05T11:02:03;7.50;;;4.32;;
29384;SDS011;16367;48.736;9.218;2023-04-05T11:04:11;7.82;;;4.35;;
29384;SDS011;16367;48.736;9.218;2023-04-05T11:06:19;8.60;;;4.15;;
29384;SDS011;16367;48.736;9.218;2023-04-05T11:08:23;10.85;;;4.28;;
29384;SDS011;16367;48.736;9.218;2023-04-05T11:10:26;9.23;;;4.88;;
29384;SDS011;16367;48.736;9.218;2023-04-05T11:15:29;7.93;;;4.18;;
29384;SDS011;16367;48.736;9.218;2023-04-05T11:17:34;9.88;;;4.47;;
29384;SDS011;16367;48.736;9.218;2023-04-05T11:19:49;6.55;;;3.70;;
29384;SDS011;16367;48.736;9.218;2023-04-05T11:21:59;8.45;;;4.00;;
29384;SDS011;16367;48.736;9.218;2023-04-05T11:24:04;7.78;;;3.75;;
29384;SDS011;16367;48.736;9.218;2023-04-05T11:26:08;11.35;;;3.83;;
29384;SDS011;16367;48.736;9.218;2023-04-05T11:28:16;8.27;;;3.95;;
29384;SDS011;16367;48.736;9.218;2023-04-05T11:30:44;9.02;;;4.22;;
29384;SDS011;16367;48.736;9.218;2023-04-05T11:32:47;8.80;;;3.60;;
29384;SDS011;16367;48.736;9.218;2023-04-05T11:34:58;7.38;;;3.70;;
29384;SDS011;16367;48.736;9.218;2023-04-05T11:37:01;6.18;;;3.50;;
29384;SDS011;16367;48.736;9.218;2023-04-05T11:39:23;10.43;;;4.20;;
29384;SDS011;16367;48.736;9.218;2023-04-05T11:41:27;8.85;;;3.83;;
29384;SDS011;16367;48.736;9.218;2023-04-05T11:43:34;7.88;;;4.35;;
29384;SDS011;16367;48.736;9.218;2023-04-05T11:45:39;9.18;;;4.20;;
29384;SDS011;16367;48.736;9.218;2023-04-05T11:47:43;7.78;;;3.95;;
29384;SDS011;16367;48.736;9.218;2023-04-05T11:49:48;8.23;;;4.35;;
29384;SDS011;16367;48.736;9.218;2023-04-05T11:51:53;8.48;;;3.85;;
29384;SDS011;16367;48.736;9.218;2023-04-05T11:53:55;8.85;;;4.60;;
29384;SDS011;16367;48.736;9.218;2023-04-05T11:55:58;8.38;;;4.25;;
29384;SDS011;16367;48.736;9.218;2023-04-05T11:58:12;8.25;;;3.53;;
29384;SDS011;16367;48.736;9.218;2023-04-05T12:00:15;9.73;;;4.38;;
29384;SDS011;16367;48.736;9.218;2023-04-05T12:02:20;7.65;;;4.55;;
29384;SDS011;16367;48.736;9.218;2023-04-05T12:04:23;8.38;;;3.63;;
29384;SDS011;16367;48.736;9.218;2023-04-05T12:06:26;7.35;;;4.25;;
29384;SDS011;16367;48.736;9.218;2023-04-05T12:08:40;7.20;;;3.92;;
29384;SDS011;16367;48.736;9.218;2023-04-05T12:10:43;8.45;;;4.68;;
29384;SDS011;16367;48.736;9.218;2023-04-05T12:12:54;7.88;;;4.05;;
29384;SDS011;16367;48.736;9.218;2023-04-05T12:14:57;6.95;;;3.90;;
29384;SDS011;16367;48.736;9.218;2023-04-05T12:17:00;8.93;;;4.40;;
29384;SDS011;16367;48.736;9.218;2023-04-05T12:19:03;8.25;;;4.30;;
29384;SDS011;16367;48.736;9.218;2023-04-05T12:21:06;9.73;;;4.10;;
29384;SDS011;16367;48.736;9.218;2023-04-05T12:23:10;8.43;;;4.25;;
29384;SDS011;16367;48.736;9.218;2023-04-05T12:25:15;8.32;;;4.60;;
29384;SDS011;16367;48.736;9.218;2023-04-05T12:27:18;7.88;;;4.45;;
29384;SDS011;16367;48.736;9.218;2023-04-05T12:29:21;8.85;;;4.07;;
29384;SDS011;16367;48.736;9.218;2023-04-05T12:31:34;8.02;;;4.40;;
29384;SDS011;16367;48.736;9.218;2023-04-05T12:33:39;7.07;;;3.72;;
29384;SDS011;16367;48.736;9.218;2023-04-05T12:35:44;9.32;;;4.53;;
29384;SDS011;16367;48.736;9.218;2023-04-05T12:37:48;6.78;;;4.32;;